Time;durP1;ratioP1;P1;durP2;ratioP2;P2;SDS_P1;SDS_P2;PMS_P1;PMS_P2;Temp;Humidity;BMP_temperature;BMP_pressure;BME280_temperature;BME280_humidity;BME280_pressure;Samples;Min_cycle;Max_cycle;Signal;HPM_P1;HPM_P2
2022/01/23 00:00:16;;;;;;;;;;;6.20;86.50;;;;;;5078270;28;20374;-74
2022/01/23 00:02:41;;;;;;;;;;;6.20;86.60;;;;;;5077086;28;19916;-74
2022/01/23 00:05:08;;;;;;;;;;;6.20;86.70;;;;;;5077616;28;19912;-74
2022/01/23 00:07:34;;;;;;;;;;;6.20;86.80;;;;;;5073995;28;19912;-74
2022/01/23 00:10:04;;;;;;;;;;;6.20;86.70;;;;;;5077575;28;19919;-74
2022/01/23 00:12:33;;;;;;;;;;;6.10;86.60;;;;;;5077564;28;19912;-74
2022/01/23 00:17:43;;;;;;;;;;;6.20;86.70;;;;;;5065781;28;19963;-73
2022/01/23 00:20:09;;;;;;;;;;;6.10;86.70;;;;;;5068683;28;19916;-74
2022/01/23 00:22:43;;;;;;;;;;;6.10;86.70;;;;;;5076051;28;19913;-73
2022/01/23 00:30:40;;;;;;;;;;;6.10;86.80;;;;;;5076815;28;19919;-74
2022/01/23 00:33:07;;;;;;;;;;;6.10;86.80;;;;;;5075226;28;20393;-74
2022/01/23 00:35:33;;;;;;;;;;;6.10;86.90;;;;;;5077853;28;19919;-74
2022/01/23 00:38:00;;;;;;;;;;;6.10;86.90;;;;;;5074151;28;19923;-73
2022/01/23 00:40:26;;;;;;;;;;;6.10;86.90;;;;;;5066636;28;19959;-74
2022/01/23 00:42:55;;;;;;;;;;;6.10;87.00;;;;;;5077147;28;19925;-74
2022/01/23 00:47:51;;;;;;;;;;;6.00;86.90;;;;;;5064955;28;20425;-74
2022/01/23 00:50:17;;;;;;;;;;;6.10;87.00;;;;;;5071288;28;19912;-74
2022/01/23 00:52:42;;;;;;;;;;;6.00;86.90;;;;;;5068030;28;19913;-73
2022/01/23 00:55:08;;;;;;;;;;;6.00;87.00;;;;;;5059933;28;19908;-74
2022/01/23 00:57:34;;;;;;;;;;;6.10;87.00;;;;;;5057703;28;19912;-74
2022/01/23 01:00:04;;;;;;;;;;;6.00;87.00;;;;;;5073729;28;19913;-74
2022/01/23 01:02:30;;;;;;;;;;;6.00;87.00;;;;;;5067163;28;19912;-73
2022/01/23 01:04:55;;;;;;;;;;;6.00;87.20;;;;;;5073588;28;20090;-74
2022/01/23 01:07:21;;;;;;;;;;;6.00;87.20;;;;;;5071953;28;19920;-73
2022/01/23 01:09:50;;;;;;;;;;;6.00;87.20;;;;;;5077065;28;19915;-73
2022/01/23 01:12:32;;;;;;;;;;;6.00;87.20;;;;;;5073438;28;19913;-73
2022/01/23 01:15:25;;;;;;;;;;;6.00;87.30;;;;;;5077532;28;19991;-73
2022/01/23 01:31:31;;;;;;;;;;;5.90;87.30;;;;;;5073081;28;20048;-73
2022/01/23 01:36:34;;;;;;;;;;;5.90;87.40;;;;;;5077288;28;19919;-72
2022/01/23 01:39:00;;;;;;;;;;;5.90;87.50;;;;;;5062272;28;19908;-72
2022/01/23 01:41:26;;;;;;;;;;;5.90;87.60;;;;;;5070541;28;19966;-72
2022/01/23 01:43:53;;;;;;;;;;;5.90;87.60;;;;;;5076132;28;19927;-72
2022/01/23 01:46:18;;;;;;;;;;;5.90;87.60;;;;;;5074978;28;20363;-72
2022/01/23 01:48:44;;;;;;;;;;;5.90;87.60;;;;;;5061091;28;19908;-72
2022/01/23 01:51:14;;;;;;;;;;;5.90;87.70;;;;;;5059596;28;19909;-72
2022/01/23 01:53:47;;;;;;;;;;;5.90;87.80;;;;;;5060757;28;20003;-72
2022/01/23 01:56:12;;;;;;;;;;;5.80;87.70;;;;;;5080581;28;19920;-72
2022/01/23 02:01:12;;;;;;;;;;;5.80;87.80;;;;;;5080011;28;19915;-72
2022/01/23 02:08:21;;;;;;;;;;;5.80;87.80;;;;;;5072277;28;19912;-71
2022/01/23 02:09:14;;;;;;;;;;;5.80;88.40;;;;;;5060231;28;20469;-72
2022/01/23 02:12:11;;;;;;;;;;;5.80;87.80;;;;;;5060698;28;19913;-72
2022/01/23 02:14:45;;;;;;;;;;;5.80;87.90;;;;;;5073908;28;20000;-72
2022/01/23 02:17:40;;;;;;;;;;;5.80;87.90;;;;;;5069148;28;19909;-72
2022/01/23 02:23:23;;;;;;;;;;;5.80;88.10;;;;;;5060145;28;19917;-72
2022/01/23 02:55:42;;;;;;;;;;;5.70;88.10;;;;;;5067662;28;19961;-72
2022/01/23 02:58:10;;;;;;;;;;;5.80;88.20;;;;;;5078398;28;19909;-72
2022/01/23 03:00:47;;;;;;;;;;;5.70;88.10;;;;;;5079669;28;20436;-72
2022/01/23 03:03:21;;;;;;;;;;;5.70;88.20;;;;;;5079557;28;20298;-72
2022/01/23 03:05:58;;;;;;;;;;;5.70;88.30;;;;;;5079824;28;19915;-72
2022/01/23 03:08:32;;;;;;;;;;;5.70;88.30;;;;;;5072489;28;20320;-72
2022/01/23 03:11:03;;;;;;;;;;;5.70;88.40;;;;;;5059700;28;19908;-74
2022/01/23 03:13:54;;;;;;;;;;;5.70;88.40;;;;;;5061949;28;19916;-72
2022/01/23 03:32:48;;;;;;;;;;;5.70;88.60;;;;;;5036844;28;19909;-72
2022/01/23 03:35:14;;;;;;;;;;;5.70;88.50;;;;;;5049053;28;19996;-72
2022/01/23 03:37:40;;;;;;;;;;;5.60;88.40;;;;;;5058624;28;19909;-72
2022/01/23 03:40:06;;;;;;;;;;;5.60;88.40;;;;;;5059208;28;20325;-72
2022/01/23 03:42:35;;;;;;;;;;;5.70;88.60;;;;;;5058651;28;19972;-72
2022/01/23 03:47:52;;;;;;;;;;;5.60;88.40;;;;;;5058944;28;20123;-71
2022/01/23 03:50:18;;;;;;;;;;;5.60;88.60;;;;;;5075155;28;19909;-72
2022/01/23 03:52:44;;;;;;;;;;;5.60;88.40;;;;;;5078220;28;20375;-72
2022/01/23 03:55:09;;;;;;;;;;;5.60;88.60;;;;;;5078704;28;19915;-72
2022/01/23 03:57:35;;;;;;;;;;;5.60;88.70;;;;;;5078489;28;19908;-72
2022/01/23 04:00:02;;;;;;;;;;;5.60;88.60;;;;;;5078455;28;19908;-71
2022/01/23 04:02:28;;;;;;;;;;;5.60;88.60;;;;;;5078606;28;19934;-72
2022/01/23 04:04:53;;;;;;;;;;;5.60;88.70;;;;;;5077702;28;19920;-72
2022/01/23 04:07:22;;;;;;;;;;;5.60;88.60;;;;;;5078183;28;19908;-72
2022/01/23 04:09:48;;;;;;;;;;;5.50;88.60;;;;;;5078333;28;20432;-72
2022/01/23 04:15:12;;;;;;;;;;;5.60;88.70;;;;;;5078393;28;19953;-72
2022/01/23 05:00:51;;;;;;;;;;;5.50;88.70;;;;;;5077591;28;20112;-72
2022/01/23 05:06:04;;;;;;;;;;;5.40;88.50;;;;;;5065591;28;19959;-72
2022/01/23 05:08:33;;;;;;;;;;;5.50;88.70;;;;;;5077281;28;19954;-72
2022/01/23 05:11:00;;;;;;;;;;;5.40;88.60;;;;;;5077659;28;20294;-72
2022/01/23 05:13:26;;;;;;;;;;;5.40;88.60;;;;;;5077536;28;19967;-72
2022/01/23 05:15:52;;;;;;;;;;;5.40;88.60;;;;;;5077590;28;19961;-72
2022/01/23 05:18:18;;;;;;;;;;;5.40;88.70;;;;;;5080298;28;19920;-72
2022/01/23 05:20:46;;;;;;;;;;;5.40;88.70;;;;;;5072944;28;19936;-72
2022/01/23 05:23:12;;;;;;;;;;;5.40;88.70;;;;;;5061084;28;19920;-72
2022/01/23 05:25:38;;;;;;;;;;;5.40;88.70;;;;;;5061480;28;19909;-72
2022/01/23 05:28:04;;;;;;;;;;;5.40;88.70;;;;;;5061285;28;19931;-72
2022/01/23 05:30:30;;;;;;;;;;;5.40;88.60;;;;;;5061700;28;20326;-72
2022/01/23 05:32:58;;;;;;;;;;;5.40;88.60;;;;;;5069976;28;19909;-72
2022/01/23 05:35:25;;;;;;;;;;;5.30;88.50;;;;;;5061594;28;19909;-72
2022/01/23 05:37:51;;;;;;;;;;;5.30;88.50;;;;;;5059594;28;19958;-72
2022/01/23 05:40:18;;;;;;;;;;;5.30;88.50;;;;;;5061310;28;19909;-72
2022/01/23 05:42:44;;;;;;;;;;;5.30;88.40;;;;;;5060899;28;19925;-72
2022/01/23 05:45:10;;;;;;;;;;;5.30;88.60;;;;;;5061159;28;19916;-72
2022/01/23 05:47:36;;;;;;;;;;;5.30;88.60;;;;;;5061034;28;19917;-72
2022/01/23 05:50:02;;;;;;;;;;;5.30;88.70;;;;;;5075148;28;19934;-72
2022/01/23 05:52:28;;;;;;;;;;;5.30;88.70;;;;;;5080658;28;20402;-73
2022/01/23 05:54:54;;;;;;;;;;;5.30;88.80;;;;;;5081042;28;19908;-73
2022/01/23 05:57:20;;;;;;;;;;;5.30;88.80;;;;;;5080879;28;20298;-72
2022/01/23 05:59:45;;;;;;;;;;;5.30;88.80;;;;;;5081036;28;19916;-72
2022/01/23 06:02:11;;;;;;;;;;;5.30;88.80;;;;;;5080797;28;19909;-72
2022/01/23 06:04:36;;;;;;;;;;;5.30;88.80;;;;;;5080908;28;19913;-72
2022/01/23 06:07:03;;;;;;;;;;;5.30;88.80;;;;;;5080696;28;19914;-73
2022/01/23 06:09:29;;;;;;;;;;;5.30;88.90;;;;;;5080511;28;19909;-72
2022/01/23 06:11:55;;;;;;;;;;;5.30;88.80;;;;;;5080554;28;19916;-72
2022/01/23 06:14:20;;;;;;;;;;;5.30;88.80;;;;;;5080629;28;19909;-72
2022/01/23 06:16:46;;;;;;;;;;;5.30;88.70;;;;;;5080757;28;20379;-72
2022/01/23 06:19:12;;;;;;;;;;;5.30;88.70;;;;;;5080457;28;20007;-72
2022/01/23 06:21:37;;;;;;;;;;;5.30;88.90;;;;;;5063848;28;19909;-72
2022/01/23 06:24:07;;;;;;;;;;;5.30;88.80;;;;;;5060047;28;19954;-72
2022/01/23 06:26:52;;;;;;;;;;;5.30;88.80;;;;;;5058885;28;20393;-72
2022/01/23 06:29:19;;;;;;;;;;;5.20;88.70;;;;;;5059666;28;19909;-73
2022/01/23 06:31:47;;;;;;;;;;;5.20;88.60;;;;;;5060858;28;20364;-72
2022/01/23 06:34:14;;;;;;;;;;;5.20;88.60;;;;;;5066287;28;20379;-72
2022/01/23 06:36:40;;;;;;;;;;;5.20;88.60;;;;;;5060352;28;20358;-72
2022/01/23 06:39:08;;;;;;;;;;;5.20;88.60;;;;;;5059661;28;19955;-72
2022/01/23 06:41:34;;;;;;;;;;;5.20;88.60;;;;;;5059896;28;19912;-72
2022/01/23 06:43:59;;;;;;;;;;;5.20;88.80;;;;;;5059825;28;19960;-72
2022/01/23 06:46:25;;;;;;;;;;;5.10;88.70;;;;;;5060157;28;19913;-72
2022/01/23 06:48:51;;;;;;;;;;;5.10;88.70;;;;;;5064188;28;19936;-72
2022/01/23 06:51:17;;;;;;;;;;;5.10;88.70;;;;;;5080168;28;20007;-72
2022/01/23 06:53:43;;;;;;;;;;;5.10;88.70;;;;;;5079490;28;19963;-72
2022/01/23 06:56:08;;;;;;;;;;;5.10;88.70;;;;;;5078582;28;20397;-72
2022/01/23 06:58:34;;;;;;;;;;;5.10;88.70;;;;;;5079803;28;20293;-73
2022/01/23 07:01:00;;;;;;;;;;;5.10;88.80;;;;;;5080020;28;19908;-72
2022/01/23 07:03:25;;;;;;;;;;;5.10;88.80;;;;;;5079703;28;19919;-72
2022/01/23 07:05:51;;;;;;;;;;;5.10;88.80;;;;;;5078507;28;20008;-73
2022/01/23 07:08:18;;;;;;;;;;;5.10;88.90;;;;;;5079652;28;19909;-73
2022/01/23 07:10:43;;;;;;;;;;;5.10;88.80;;;;;;5079647;28;19909;-73
2022/01/23 07:13:09;;;;;;;;;;;5.10;88.80;;;;;;5079454;28;20007;-73
2022/01/23 07:15:35;;;;;;;;;;;5.10;88.90;;;;;;5059709;28;20547;-73
2022/01/23 07:18:00;;;;;;;;;;;5.10;89.00;;;;;;5059600;28;20486;-73
2022/01/23 07:20:26;;;;;;;;;;;5.10;89.10;;;;;;5065465;28;19909;-73
2022/01/23 07:22:52;;;;;;;;;;;5.10;89.00;;;;;;5059006;28;19913;-73
2022/01/23 07:25:17;;;;;;;;;;;5.10;89.00;;;;;;5059361;28;19991;-73
2022/01/23 07:27:49;;;;;;;;;;;5.10;89.00;;;;;;5059343;28;19908;-73
2022/01/23 07:32:49;;;;;;;;;;;5.10;89.10;;;;;;5067489;28;19915;-73
2022/01/23 07:35:14;;;;;;;;;;;5.20;89.10;;;;;;5059306;28;20288;-72
2022/01/23 07:37:40;;;;;;;;;;;5.10;89.00;;;;;;5058681;28;19952;-72
2022/01/23 07:40:06;;;;;;;;;;;5.10;89.00;;;;;;5058991;28;19909;-73
2022/01/23 07:42:32;;;;;;;;;;;5.10;89.00;;;;;;5058708;28;19921;-73
2022/01/23 07:44:57;;;;;;;;;;;5.10;89.10;;;;;;5057596;28;20407;-74
2022/01/23 07:47:23;;;;;;;;;;;5.10;89.00;;;;;;5058992;28;20383;-73
2022/01/23 07:49:50;;;;;;;;;;;5.10;89.10;;;;;;5071187;28;20291;-77
2022/01/23 07:52:18;;;;;;;;;;;5.10;89.10;;;;;;5078395;28;20381;-73
2022/01/23 07:54:44;;;;;;;;;;;5.10;89.00;;;;;;5078687;28;19970;-73
2022/01/23 07:57:10;;;;;;;;;;;5.10;89.00;;;;;;5078857;28;19909;-78
2022/01/23 07:59:35;;;;;;;;;;;5.10;89.00;;;;;;5078718;28;19908;-83
2022/01/23 08:02:01;;;;;;;;;;;5.10;88.90;;;;;;5078505;28;19909;-78
2022/01/23 08:04:27;;;;;;;;;;;5.10;88.90;;;;;;5078433;28;19999;-76
2022/01/23 08:07:30;;;;;;;;;;;5.10;89.00;;;;;;5078355;28;19908;-73
2022/01/23 08:09:39;;;;;;;;;;;5.10;89.00;;;;;;5078047;28;19963;-80
2022/01/23 08:12:04;;;;;;;;;;;5.10;88.90;;;;;;5078199;28;19908;-82
2022/01/23 08:14:30;;;;;;;;;;;5.10;88.90;;;;;;5076882;28;19909;-83
2022/01/23 08:16:56;;;;;;;;;;;5.10;88.80;;;;;;5076839;28;19996;-85
2022/01/23 08:19:21;;;;;;;;;;;5.00;88.70;;;;;;5078344;28;20354;-83
2022/01/23 08:21:47;;;;;;;;;;;5.10;88.80;;;;;;5060426;28;19968;-82
2022/01/23 08:24:13;;;;;;;;;;;5.10;88.80;;;;;;5056342;28;20383;-86
2022/01/23 08:26:38;;;;;;;;;;;5.10;88.90;;;;;;5056716;28;19959;-88
2022/01/23 08:29:05;;;;;;;;;;;5.10;88.90;;;;;;5056788;28;20319;-87
2022/01/23 08:31:30;;;;;;;;;;;5.10;89.00;;;;;;5058072;28;20064;-83
2022/01/23 08:33:56;;;;;;;;;;;5.10;89.00;;;;;;5065664;28;19913;-81
2022/01/23 08:36:22;;;;;;;;;;;5.10;89.00;;;;;;5058046;28;19920;-87
2022/01/23 08:38:48;;;;;;;;;;;5.10;89.00;;;;;;5068590;28;19908;-82
2022/01/23 08:43:58;;;;;;;;;;;5.10;89.00;;;;;;5057701;28;19928;-84
2022/01/23 08:46:24;;;;;;;;;;;5.10;89.00;;;;;;5058094;28;19908;-89
2022/01/23 08:48:50;;;;;;;;;;;5.20;88.90;;;;;;5060801;28;19908;-78
2022/01/23 08:51:15;;;;;;;;;;;5.20;88.90;;;;;;5077469;28;20310;-83
2022/01/23 08:53:41;;;;;;;;;;;5.20;88.90;;;;;;5077621;28;19908;-79
2022/01/23 08:56:07;;;;;;;;;;;5.20;88.90;;;;;;5077700;28;19938;-76
2022/01/23 08:58:33;;;;;;;;;;;5.20;88.80;;;;;;5076539;28;20282;-73
2022/01/23 09:01:02;;;;;;;;;;;5.20;88.80;;;;;;5077916;28;19908;-75
2022/01/23 09:03:28;;;;;;;;;;;5.20;88.80;;;;;;5077619;28;20378;-78
2022/01/23 09:05:53;;;;;;;;;;;5.20;88.80;;;;;;5077479;28;20011;-76
2022/01/23 09:08:21;;;;;;;;;;;5.20;88.80;;;;;;5077022;28;19913;-77
2022/01/23 09:10:54;;;;;;;;;;;5.30;88.60;;;;;;5074911;28;19958;-80
2022/01/23 09:15:54;;;;;;;;;;;5.30;88.40;;;;;;5061669;28;19908;-78
2022/01/23 09:18:20;;;;;;;;;;;5.30;88.40;;;;;;5077522;28;19966;-78
2022/01/23 09:20:45;;;;;;;;;;;5.30;88.40;;;;;;5063470;28;19946;-82
2022/01/23 09:23:11;;;;;;;;;;;5.30;88.40;;;;;;5060578;28;19944;-76
2022/01/23 09:25:37;;;;;;;;;;;5.30;88.40;;;;;;5055953;28;19945;-74
2022/01/23 09:28:03;;;;;;;;;;;5.30;89.00;;;;;;5039753;28;19913;-72
2022/01/23 09:30:35;;;;;;;;;;;5.30;88.40;;;;;;5057423;28;19981;-73
2022/01/23 09:33:00;;;;;;;;;;;5.30;88.40;;;;;;5060987;28;19955;-72
2022/01/23 09:35:26;;;;;;;;;;;5.30;88.20;;;;;;5067554;28;19909;-73
2022/01/23 09:37:52;;;;;;;;;;;5.30;88.10;;;;;;5057142;28;19996;-72
2022/01/23 09:40:17;;;;;;;;;;;5.30;87.90;;;;;;5057403;28;20004;-72
2022/01/23 09:42:51;;;;;;;;;;;5.30;87.80;;;;;;5057195;28;19921;-72
2022/01/23 09:45:17;;;;;;;;;;;5.30;87.80;;;;;;5057174;28;19913;-72
2022/01/23 09:47:43;;;;;;;;;;;5.20;87.70;;;;;;5071570;28;19919;-72
2022/01/23 09:50:10;;;;;;;;;;;5.30;88.00;;;;;;5065472;28;19909;-72
2022/01/23 09:52:36;;;;;;;;;;;5.20;87.90;;;;;;5060299;28;19915;-72
2022/01/23 09:55:08;;;;;;;;;;;5.30;88.00;;;;;;5074244;28;19921;-72
2022/01/23 09:57:44;;;;;;;;;;;5.30;88.00;;;;;;5065423;28;20330;-71
2022/01/23 10:00:12;;;;;;;;;;;5.30;88.10;;;;;;5071898;28;20015;-72
2022/01/23 10:02:38;;;;;;;;;;;5.30;88.20;;;;;;5077927;28;19908;-72
2022/01/23 10:05:04;;;;;;;;;;;5.30;88.30;;;;;;5079067;28;19917;-71
2022/01/23 10:07:31;;;;;;;;;;;5.30;88.30;;;;;;5076046;28;19938;-73
2022/01/23 10:10:09;;;;;;;;;;;5.40;88.40;;;;;;5078545;28;20015;-71
2022/01/23 10:12:37;;;;;;;;;;;5.40;88.40;;;;;;5073900;28;20396;-73
2022/01/23 10:15:03;;;;;;;;;;;5.40;88.30;;;;;;5071997;28;19913;-71
2022/01/23 10:17:28;;;;;;;;;;;5.40;88.30;;;;;;5075830;28;19919;-71
2022/01/23 10:19:54;;;;;;;;;;;5.40;88.30;;;;;;5079461;28;19919;-72
2022/01/23 10:22:20;;;;;;;;;;;5.40;88.20;;;;;;5078040;28;19969;-72
2022/01/23 10:24:46;;;;;;;;;;;5.40;88.30;;;;;;5080422;28;19966;-72
2022/01/23 10:27:11;;;;;;;;;;;5.50;88.40;;;;;;5080149;28;19920;-72
2022/01/23 10:29:43;;;;;;;;;;;5.50;88.40;;;;;;5069856;28;19915;-72
2022/01/23 10:32:20;;;;;;;;;;;5.50;88.40;;;;;;5076679;28;19917;-72
2022/01/23 10:34:56;;;;;;;;;;;5.50;88.40;;;;;;5076496;28;20288;-72
2022/01/23 10:37:39;;;;;;;;;;;5.60;88.50;;;;;;5063249;28;19912;-72
2022/01/23 10:40:26;;;;;;;;;;;5.70;88.40;;;;;;5062985;28;19965;-72
2022/01/23 10:50:43;;;;;;;;;;;5.60;87.70;;;;;;5059696;28;19909;-72
2022/01/23 10:53:08;;;;;;;;;;;5.60;87.60;;;;;;5076773;28;20042;-72
2022/01/23 10:55:35;;;;;;;;;;;5.60;87.60;;;;;;5079142;28;19908;-71
2022/01/23 10:58:02;;;;;;;;;;;5.60;87.70;;;;;;5059698;28;20360;-72
2022/01/23 11:00:35;;;;;;;;;;;5.70;87.90;;;;;;5059531;28;20370;-72
2022/01/23 11:03:13;;;;;;;;;;;5.70;87.80;;;;;;5059534;28;20371;-72
2022/01/23 11:05:39;;;;;;;;;;;5.70;87.70;;;;;;5063785;28;20265;-72
2022/01/23 11:08:25;;;;;;;;;;;5.70;87.60;;;;;;5071920;28;19952;-70
2022/01/23 11:10:55;;;;;;;;;;;5.70;87.60;;;;;;5068834;28;20346;-72
2022/01/23 11:19:18;;;;;;;;;;;5.80;87.60;;;;;;5065857;28;20014;-75
2022/01/23 11:21:44;;;;;;;;;;;5.80;87.50;;;;;;5066361;28;19936;-73
2022/01/23 11:24:11;;;;;;;;;;;5.80;87.30;;;;;;5058701;28;19956;-79
2022/01/23 11:26:37;;;;;;;;;;;5.90;87.30;;;;;;5059452;28;19908;-74
2022/01/23 11:29:09;;;;;;;;;;;5.90;87.30;;;;;;5059516;28;20367;-75
2022/01/23 11:31:36;;;;;;;;;;;5.90;87.20;;;;;;5075429;28;20337;-76
2022/01/23 11:34:05;;;;;;;;;;;5.90;87.40;;;;;;5075441;28;20315;-86
2022/01/23 11:36:30;;;;;;;;;;;5.90;87.10;;;;;;5078445;28;19948;-77
2022/01/23 11:39:03;;;;;;;;;;;6.00;86.80;;;;;;5077066;28;20747;-78
2022/01/23 11:55:32;;;;;;;;;;;6.10;86.80;;;;;;5070375;28;20461;-80
2022/01/23 11:57:58;;;;;;;;;;;6.10;86.60;;;;;;5074691;28;19912;-76
2022/01/23 12:00:32;;;;;;;;;;;6.10;86.80;;;;;;5064137;28;19966;-79
2022/01/23 12:03:17;;;;;;;;;;;6.10;86.60;;;;;;5064147;28;19916;-76
2022/01/23 12:05:45;;;;;;;;;;;6.10;86.50;;;;;;5073607;28;19912;-77
2022/01/23 12:08:16;;;;;;;;;;;6.10;86.60;;;;;;5073861;28;19912;-77
2022/01/23 12:11:05;;;;;;;;;;;6.20;86.60;;;;;;5078059;28;19913;-79
2022/01/23 12:18:49;;;;;;;;;;;6.20;86.00;;;;;;5076020;28;19978;-83
2022/01/23 12:21:28;;;;;;;;;;;6.30;85.90;;;;;;5063039;28;19916;-81
2022/01/23 12:23:58;;;;;;;;;;;6.30;85.70;;;;;;5068298;28;19916;-86
2022/01/23 12:26:23;;;;;;;;;;;6.30;85.50;;;;;;5076250;28;19995;-80
2022/01/23 12:28:49;;;;;;;;;;;6.30;85.20;;;;;;5075940;28;20368;-82
2022/01/23 12:31:15;;;;;;;;;;;6.30;85.50;;;;;;5063519;28;19909;-74
2022/01/23 12:33:40;;;;;;;;;;;6.30;85.70;;;;;;5069389;28;19908;-75
2022/01/23 12:36:15;;;;;;;;;;;6.30;85.50;;;;;;5070816;28;19913;-73
2022/01/23 12:38:42;;;;;;;;;;;6.30;85.50;;;;;;5057745;28;20291;-73
2022/01/23 12:41:14;;;;;;;;;;;6.30;85.40;;;;;;5057545;28;19908;-76
2022/01/23 12:43:40;;;;;;;;;;;6.30;85.50;;;;;;5067715;28;19925;-84
2022/01/23 12:46:08;;;;;;;;;;;6.30;85.50;;;;;;5070708;28;20350;-73
2022/01/23 12:48:36;;;;;;;;;;;6.30;85.20;;;;;;5066926;28;19908;-85
2022/01/23 12:51:04;;;;;;;;;;;6.30;85.30;;;;;;5063214;28;20371;-76
2022/01/23 12:53:40;;;;;;;;;;;6.30;85.40;;;;;;5073432;28;19924;-83
2022/01/23 12:56:09;;;;;;;;;;;6.40;85.30;;;;;;5063223;28;20410;-81
2022/01/23 12:58:34;;;;;;;;;;;6.40;85.20;;;;;;5066227;28;20379;-76
2022/01/23 13:01:03;;;;;;;;;;;6.40;85.00;;;;;;5073710;28;19979;-75
2022/01/23 13:03:29;;;;;;;;;;;6.40;85.00;;;;;;5070231;28;19916;-72
2022/01/23 13:05:55;;;;;;;;;;;6.40;85.10;;;;;;5070004;28;19915;-71
2022/01/23 13:08:26;;;;;;;;;;;6.40;84.90;;;;;;5069950;28;19912;-72
2022/01/23 13:11:20;;;;;;;;;;;6.40;84.90;;;;;;5075393;28;19966;-74
2022/01/23 13:13:52;;;;;;;;;;;6.40;84.80;;;;;;5060919;28;19908;-76
2022/01/23 13:16:59;;;;;;;;;;;6.40;84.40;;;;;;5073880;28;19909;-73
2022/01/23 13:27:45;;;;;;;;;;;6.40;84.60;;;;;;5074968;28;19915;-77
2022/01/23 13:32:27;;;;;;;;;;;6.40;84.60;;;;;;5058805;28;19955;-75
2022/01/23 13:35:02;;;;;;;;;;;6.50;84.60;;;;;;5066456;28;20274;-76
2022/01/23 13:37:30;;;;;;;;;;;6.40;84.60;;;;;;5063725;28;19958;-74
2022/01/23 13:40:00;;;;;;;;;;;6.40;84.60;;;;;;5072144;28;19909;-75
2022/01/23 13:59:13;;;;;;;;;;;6.30;85.00;;;;;;5072696;28;19919;-81
2022/01/23 14:02:14;;;;;;;;;;;6.30;85.00;;;;;;5078787;28;20436;-76
2022/01/23 14:04:27;;;;;;;;;;;6.30;85.10;;;;;;5074145;28;19917;-82
2022/01/23 14:06:53;;;;;;;;;;;6.20;85.20;;;;;;5076828;28;19919;-79
2022/01/23 14:09:19;;;;;;;;;;;6.30;85.20;;;;;;5069439;28;20003;-78
2022/01/23 14:11:46;;;;;;;;;;;6.20;85.00;;;;;;5060638;28;19909;-76
2022/01/23 14:14:19;;;;;;;;;;;6.20;85.20;;;;;;5069252;28;19908;-81
2022/01/23 14:16:45;;;;;;;;;;;6.20;85.10;;;;;;5062013;28;19909;-78
2022/01/23 14:19:31;;;;;;;;;;;6.20;85.20;;;;;;5062622;28;19909;-78
2022/01/23 14:22:04;;;;;;;;;;;6.10;85.10;;;;;;5059795;28;20364;-80
2022/01/23 14:24:33;;;;;;;;;;;6.10;85.20;;;;;;5072712;28;19920;-78
2022/01/23 14:27:08;;;;;;;;;;;6.10;85.30;;;;;;5080393;28;19909;-78
2022/01/23 14:29:45;;;;;;;;;;;6.00;85.40;;;;;;5076881;28;19916;-79
2022/01/23 14:32:18;;;;;;;;;;;6.00;85.60;;;;;;5063451;28;19908;-77
2022/01/23 14:34:44;;;;;;;;;;;6.00;85.50;;;;;;5059493;28;19909;-76
2022/01/23 14:37:10;;;;;;;;;;;6.00;85.60;;;;;;5059923;28;20004;-76
2022/01/23 14:39:36;;;;;;;;;;;6.00;85.80;;;;;;5059826;28;19916;-77
2022/01/23 14:42:09;;;;;;;;;;;6.00;85.80;;;;;;5059926;28;19920;-77
2022/01/23 14:44:35;;;;;;;;;;;6.00;85.80;;;;;;5073743;28;20295;-78
2022/01/23 14:47:01;;;;;;;;;;;6.00;86.00;;;;;;5079515;28;19909;-79
2022/01/23 14:49:30;;;;;;;;;;;5.90;85.90;;;;;;5072624;28;19920;-78
2022/01/23 14:51:58;;;;;;;;;;;5.90;86.00;;;;;;5059406;28;19909;-83
2022/01/23 14:54:24;;;;;;;;;;;5.90;86.00;;;;;;5058806;28;19913;-77
2022/01/23 14:56:51;;;;;;;;;;;6.00;86.10;;;;;;5058427;28;19909;-76
2022/01/23 14:59:16;;;;;;;;;;;5.90;86.10;;;;;;5059761;28;19909;-74
2022/01/23 15:01:43;;;;;;;;;;;5.90;86.10;;;;;;5059673;28;19952;-76
2022/01/23 15:04:10;;;;;;;;;;;5.90;86.30;;;;;;5065609;28;19912;-75
2022/01/23 15:06:36;;;;;;;;;;;5.90;86.20;;;;;;5079081;28;19961;-76
2022/01/23 15:09:04;;;;;;;;;;;5.90;86.00;;;;;;5068111;28;19909;-82
2022/01/23 15:11:29;;;;;;;;;;;5.80;85.90;;;;;;5062731;28;20453;-77
2022/01/23 15:13:55;;;;;;;;;;;5.80;86.00;;;;;;5079250;28;19947;-77
2022/01/23 15:16:20;;;;;;;;;;;5.80;86.10;;;;;;5078389;28;19908;-88
2022/01/23 15:18:46;;;;;;;;;;;5.70;86.30;;;;;;5079368;28;20383;-81
2022/01/23 15:21:12;;;;;;;;;;;5.70;86.50;;;;;;5064957;28;19909;-80
2022/01/23 15:23:38;;;;;;;;;;;5.80;86.70;;;;;;5058200;28;20403;-82
2022/01/23 15:26:04;;;;;;;;;;;5.70;86.70;;;;;;5062105;28;19909;-79
2022/01/23 15:28:29;;;;;;;;;;;5.70;86.80;;;;;;5063840;28;19909;-85
2022/01/23 15:30:55;;;;;;;;;;;5.70;86.90;;;;;;5068864;28;19912;-89
2022/01/23 15:33:21;;;;;;;;;;;5.70;86.90;;;;;;5071744;28;19932;-81
2022/01/23 15:35:47;;;;;;;;;;;5.70;86.90;;;;;;5059034;28;19912;-80
2022/01/23 15:38:16;;;;;;;;;;;5.70;87.00;;;;;;5058789;28;20361;-77
2022/01/23 15:40:43;;;;;;;;;;;5.70;87.10;;;;;;5058559;28;19909;-79
2022/01/23 15:43:08;;;;;;;;;;;5.70;87.10;;;;;;5058513;28;19928;-83
2022/01/23 15:45:34;;;;;;;;;;;5.70;87.10;;;;;;5057390;28;19909;-80
2022/01/23 15:48:00;;;;;;;;;;;5.60;86.90;;;;;;5058923;28;20371;-76
2022/01/23 15:50:26;;;;;;;;;;;5.60;86.80;;;;;;5057599;28;20376;-75
2022/01/23 15:52:51;;;;;;;;;;;5.60;87.00;;;;;;5056904;28;20320;-74
2022/01/23 15:55:19;;;;;;;;;;;5.60;87.00;;;;;;5057288;28;19909;-79
2022/01/23 15:57:48;;;;;;;;;;;5.60;87.00;;;;;;5057205;28;20000;-75
2022/01/23 16:00:14;;;;;;;;;;;5.60;87.00;;;;;;5057411;28;19915;-76
2022/01/23 16:02:41;;;;;;;;;;;5.60;87.10;;;;;;5058711;28;19916;-75
2022/01/23 16:05:07;;;;;;;;;;;5.60;87.30;;;;;;5059910;28;19992;-76
2022/01/23 16:07:33;;;;;;;;;;;5.50;87.30;;;;;;5069860;28;19963;-76
2022/01/23 16:09:58;;;;;;;;;;;5.50;87.30;;;;;;5058199;28;19909;-75
2022/01/23 16:12:24;;;;;;;;;;;5.50;87.40;;;;;;5058546;28;19931;-76
2022/01/23 16:14:50;;;;;;;;;;;5.50;87.50;;;;;;5058290;28;19909;-75
2022/01/23 16:17:15;;;;;;;;;;;5.50;87.50;;;;;;5058178;28;19931;-77
2022/01/23 16:19:41;;;;;;;;;;;5.50;87.50;;;;;;5062937;28;19916;-76
2022/01/23 16:22:07;;;;;;;;;;;5.50;87.50;;;;;;5057984;28;19913;-77
2022/01/23 16:24:32;;;;;;;;;;;5.50;87.50;;;;;;5060613;28;20041;-81
2022/01/23 16:26:58;;;;;;;;;;;5.50;87.60;;;;;;5070408;28;19952;-79
2022/01/23 16:29:25;;;;;;;;;;;5.50;87.60;;;;;;5061426;28;19909;-80
2022/01/23 16:31:53;;;;;;;;;;;5.40;87.60;;;;;;5059781;28;19931;-80
2022/01/23 16:34:19;;;;;;;;;;;5.40;87.80;;;;;;5062147;28;19909;-80
2022/01/23 16:36:45;;;;;;;;;;;5.40;87.90;;;;;;5057757;28;19958;-79
2022/01/23 16:39:12;;;;;;;;;;;5.40;88.00;;;;;;5057621;28;20249;-80
2022/01/23 16:41:38;;;;;;;;;;;5.40;88.10;;;;;;5057806;28;19964;-80
2022/01/23 16:44:04;;;;;;;;;;;5.40;88.20;;;;;;5067972;28;19927;-80
2022/01/23 16:46:29;;;;;;;;;;;5.40;88.20;;;;;;5068684;28;20276;-80
2022/01/23 16:48:55;;;;;;;;;;;5.30;88.20;;;;;;5070410;28;19912;-80
2022/01/23 16:51:21;;;;;;;;;;;5.40;88.30;;;;;;5057806;28;19913;-80
2022/01/23 16:53:46;;;;;;;;;;;5.30;88.40;;;;;;5057578;28;19909;-79
2022/01/23 16:56:12;;;;;;;;;;;5.30;88.40;;;;;;5057768;28;19999;-79
2022/01/23 16:58:38;;;;;;;;;;;5.30;88.50;;;;;;5057620;28;19931;-79
2022/01/23 17:01:04;;;;;;;;;;;5.30;88.60;;;;;;5057443;28;19909;-79
2022/01/23 17:03:30;;;;;;;;;;;5.30;88.60;;;;;;5060290;28;19912;-80
2022/01/23 17:05:55;;;;;;;;;;;5.30;88.60;;;;;;5072399;28;19915;-79
2022/01/23 17:08:21;;;;;;;;;;;5.30;88.60;;;;;;5070888;28;19944;-80
2022/01/23 17:10:47;;;;;;;;;;;5.30;88.70;;;;;;5072720;28;19916;-81
2022/01/23 17:13:13;;;;;;;;;;;5.20;88.50;;;;;;5081120;28;19995;-80
2022/01/23 17:15:39;;;;;;;;;;;5.30;88.50;;;;;;5081832;28;19947;-80
2022/01/23 17:18:05;;;;;;;;;;;5.20;88.30;;;;;;5081524;28;19909;-79
2022/01/23 17:20:31;;;;;;;;;;;5.20;88.60;;;;;;5073437;28;19909;-82
2022/01/23 17:22:57;;;;;;;;;;;5.20;88.60;;;;;;5061959;28;19916;-88
2022/01/23 17:25:23;;;;;;;;;;;5.20;88.60;;;;;;5065142;28;19917;-91
2022/01/23 17:27:48;;;;;;;;;;;5.20;88.70;;;;;;5063492;28;19908;-86
2022/01/23 17:30:15;;;;;;;;;;;5.20;88.80;;;;;;5081331;28;19973;-88
2022/01/23 17:32:42;;;;;;;;;;;5.10;88.80;;;;;;5079708;28;19909;-83
2022/01/23 17:35:08;;;;;;;;;;;5.10;89.00;;;;;;5069937;28;20371;-92
2022/01/23 17:37:34;;;;;;;;;;;5.20;89.00;;;;;;5078662;28;19952;-93
2022/01/23 17:39:59;;;;;;;;;;;5.10;88.80;;;;;;5070566;28;19909;-84
2022/01/23 17:42:25;;;;;;;;;;;5.10;88.80;;;;;;5066215;28;19927;-87
2022/01/23 17:44:52;;;;;;;;;;;5.10;88.90;;;;;;5061232;28;20368;-80
2022/01/23 17:50:15;;;;;;;;;;;5.10;88.80;;;;;;5061336;28;19948;-80
2022/01/23 17:52:41;;;;;;;;;;;5.00;88.70;;;;;;5060474;28;19936;-80
2022/01/23 17:55:07;;;;;;;;;;;5.00;88.80;;;;;;5060861;28;20300;-77
2022/01/23 17:57:32;;;;;;;;;;;5.00;88.90;;;;;;5060714;28;19949;-81
2022/01/23 17:59:58;;;;;;;;;;;5.00;88.90;;;;;;5060919;28;19909;-79